sensor_id;sensor_type;location;lat;lon;timestamp;pressure;altitude;pressure_sealevel;temperature;humidity
57572;BME280;44459;43.522;24.470;2022-12-07T00:01:13;100393.31;;;5.63;100.00
57572;BME280;44459;43.522;24.470;2022-12-07T00:03:40;100402.03;;;5.62;100.00
57572;BME280;44459;43.522;24.470;2022-12-07T00:06:08;100408.84;;;5.57;100.00
57572;BME280;44459;43.522;24.470;2022-12-07T00:08:34;100398.31;;;5.55;100.00
57572;BME280;44459;43.522;24.470;2022-12-07T00:11:13;100415.72;;;5.53;100.00
57572;BME280;44459;43.522;24.470;2022-12-07T00:13:39;100411.28;;;5.51;100.00
57572;BME280;44459;43.522;24.470;2022-12-07T00:16:08;100400.81;;;5.51;100.00
57572;BME280;44459;43.522;24.470;2022-12-07T00:18:34;100414.69;;;5.48;100.00
57572;BME280;44459;43.522;24.470;2022-12-07T00:21:13;100404.13;;;5.45;100.00
57572;BME280;44459;43.522;24.470;2022-12-07T00:23:39;100406.81;;;5.47;100.00
57572;BME280;44459;43.522;24.470;2022-12-07T00:26:09;100402.31;;;5.43;100.00
57572;BME280;44459;43.522;24.470;2022-12-07T00:28:35;100397.84;;;5.39;100.00
57572;BME280;44459;43.522;24.470;2022-12-07T00:31:08;100403.00;;;5.36;100.00
57572;BME280;44459;43.522;24.470;2022-12-07T00:33:35;100384.59;;;5.33;100.00
57572;BME280;44459;43.522;24.470;2022-12-07T00:36:02;100395.09;;;5.34;100.00
57572;BME280;44459;43.522;24.470;2022-12-07T00:38:30;100394.97;;;5.30;100.00
57572;BME280;44459;43.522;24.470;2022-12-07T00:41:01;100403.63;;;5.27;100.00
57572;BME280;44459;43.522;24.470;2022-12-07T00:43:27;100406.25;;;5.29;100.00
57572;BME280;44459;43.522;24.470;2022-12-07T00:45:53;100406.25;;;5.29;100.00
57572;BME280;44459;43.522;24.470;2022-12-07T00:48:19;100411.59;;;5.32;100.00
57572;BME280;44459;43.522;24.470;2022-12-07T00:50:45;100396.69;;;5.29;100.00
57572;BME280;44459;43.522;24.470;2022-12-07T00:53:10;100397.59;;;5.30;100.00
57572;BME280;44459;43.522;24.470;2022-12-07T00:55:36;100390.56;;;5.29;100.00
57572;BME280;44459;43.522;24.470;2022-12-07T00:58:02;100392.34;;;5.30;100.00
57572;BME280;44459;43.522;24.470;2022-12-07T01:00:28;100396.69;;;5.29;100.00
57572;BME280;44459;43.522;24.470;2022-12-07T01:02:53;100395.78;;;5.29;100.00
57572;BME280;44459;43.522;24.470;2022-12-07T01:05:19;100394.72;;;5.22;100.00
57572;BME280;44459;43.522;24.470;2022-12-07T01:07:44;100391.19;;;5.20;100.00
57572;BME280;44459;43.522;24.470;2022-12-07T01:10:11;100387.69;;;5.20;100.00
57572;BME280;44459;43.522;24.470;2022-12-07T01:12:37;100379.03;;;5.22;100.00
57572;BME280;44459;43.522;24.470;2022-12-07T01:15:02;100378.13;;;5.22;100.00
57572;BME280;44459;43.522;24.470;2022-12-07T01:17:28;100382.53;;;5.23;100.00
57572;BME280;44459;43.522;24.470;2022-12-07T01:19:53;100378.19;;;5.23;100.00
57572;BME280;44459;43.522;24.470;2022-12-07T01:22:19;100374.78;;;5.26;100.00
57572;BME280;44459;43.522;24.470;2022-12-07T01:24:44;100373.94;;;5.27;100.00
57572;BME280;44459;43.522;24.470;2022-12-07T01:27:12;100380.94;;;5.28;100.00
57572;BME280;44459;43.522;24.470;2022-12-07T01:29:38;100380.72;;;5.20;100.00
57572;BME280;44459;43.522;24.470;2022-12-07T01:32:03;100382.44;;;5.20;100.00
57572;BME280;44459;43.522;24.470;2022-12-07T01:34:29;100373.72;;;5.19;100.00
57572;BME280;44459;43.522;24.470;2022-12-07T01:36:54;100378.19;;;5.23;100.00
57572;BME280;44459;43.522;24.470;2022-12-07T01:39:20;100377.34;;;5.24;100.00
57572;BME280;44459;43.522;24.470;2022-12-07T01:41:45;100373.78;;;5.22;100.00
57572;BME280;44459;43.522;24.470;2022-12-07T01:44:16;100380.75;;;5.22;100.00
57572;BME280;44459;43.522;24.470;2022-12-07T01:49:29;100359.78;;;5.20;100.00
57572;BME280;44459;43.522;24.470;2022-12-07T01:52:03;100365.88;;;5.21;100.00
57572;BME280;44459;43.522;24.470;2022-12-07T01:54:32;100365.13;;;5.25;100.00
57572;BME280;44459;43.522;24.470;2022-12-07T01:56:59;100353.75;;;5.23;100.00
57572;BME280;44459;43.522;24.470;2022-12-07T01:59:25;100359.97;;;5.26;100.00
57572;BME280;44459;43.522;24.470;2022-12-07T02:01:52;100345.94;;;5.24;100.00
57572;BME280;44459;43.522;24.470;2022-12-07T02:04:19;100339.03;;;5.26;100.00
57572;BME280;44459;43.522;24.470;2022-12-07T02:06:46;100346.97;;;5.29;100.00
57572;BME280;44459;43.522;24.470;2022-12-07T02:09:12;100354.00;;;5.32;100.00
57572;BME280;44459;43.522;24.470;2022-12-07T02:11:38;100342.78;;;5.36;100.00
57572;BME280;44459;43.522;24.470;2022-12-07T02:14:04;100348.03;;;5.36;100.00
57572;BME280;44459;43.522;24.470;2022-12-07T02:21:49;100344.50;;;5.35;100.00
57572;BME280;44459;43.522;24.470;2022-12-07T02:27:25;100356.53;;;5.29;100.00
57572;BME280;44459;43.522;24.470;2022-12-07T02:32:24;100353.03;;;5.28;100.00
57572;BME280;44459;43.522;24.470;2022-12-07T02:40:47;100327.66;;;5.26;100.00
57572;BME280;44459;43.522;24.470;2022-12-07T02:43:24;100323.34;;;5.28;100.00
57572;BME280;44459;43.522;24.470;2022-12-07T02:45:56;100320.88;;;5.32;100.00
57572;BME280;44459;43.522;24.470;2022-12-07T02:48:24;100309.56;;;5.33;100.00
57572;BME280;44459;43.522;24.470;2022-12-07T02:50:52;100312.22;;;5.35;100.00
57572;BME280;44459;43.522;24.470;2022-12-07T02:58:42;100325.34;;;5.36;100.00
57572;BME280;44459;43.522;24.470;2022-12-07T03:07:05;100323.19;;;5.22;100.00
57572;BME280;44459;43.522;24.470;2022-12-07T03:09:37;100323.09;;;5.19;100.00
57572;BME280;44459;43.522;24.470;2022-12-07T03:12:17;100329.16;;;5.18;100.00
57572;BME280;44459;43.522;24.470;2022-12-07T03:14:53;100319.44;;;5.12;100.00
57572;BME280;44459;43.522;24.470;2022-12-07T03:17:25;100316.06;;;5.16;100.00
57572;BME280;44459;43.522;24.470;2022-12-07T03:19:55;100317.84;;;5.17;100.00
57572;BME280;44459;43.522;24.470;2022-12-07T03:22:23;100315.34;;;5.22;100.00
57572;BME280;44459;43.522;24.470;2022-12-07T03:24:55;100325.94;;;5.26;100.00
57572;BME280;44459;43.522;24.470;2022-12-07T03:27:29;100327.66;;;5.26;100.00
57572;BME280;44459;43.522;24.470;2022-12-07T03:30:17;100325.13;;;5.29;100.00
57572;BME280;44459;43.522;24.470;2022-12-07T03:33:05;100323.28;;;5.25;100.00
57572;BME280;44459;43.522;24.470;2022-12-07T03:35:45;100324.97;;;5.23;100.00
57572;BME280;44459;43.522;24.470;2022-12-07T03:38:22;100323.19;;;5.22;100.00
57572;BME280;44459;43.522;24.470;2022-12-07T03:40:55;100303.06;;;5.19;100.00
57572;BME280;44459;43.522;24.470;2022-12-07T03:43:23;100290.94;;;5.23;100.00
57572;BME280;44459;43.522;24.470;2022-12-07T03:48:41;100308.75;;;5.36;100.00
57572;BME280;44459;43.522;24.470;2022-12-07T03:51:21;100316.66;;;5.37;100.00
57572;BME280;44459;43.522;24.470;2022-12-07T03:54:28;100314.94;;;5.38;100.00
57572;BME280;44459;43.522;24.470;2022-12-07T03:56:57;100307.88;;;5.35;100.00
57572;BME280;44459;43.522;24.470;2022-12-07T03:59:24;100300.78;;;5.31;100.00
57572;BME280;44459;43.522;24.470;2022-12-07T04:01:56;100291.19;;;5.30;100.00
57572;BME280;44459;43.522;24.470;2022-12-07T04:04:24;100298.13;;;5.30;100.00
57572;BME280;44459;43.522;24.470;2022-12-07T04:06:50;100288.63;;;5.33;100.00
57572;BME280;44459;43.522;24.470;2022-12-07T04:09:17;100283.63;;;5.41;100.00
57572;BME280;44459;43.522;24.470;2022-12-07T04:11:42;100293.19;;;5.40;100.00
57572;BME280;44459;43.522;24.470;2022-12-07T04:14:08;100300.16;;;5.40;100.00
57572;BME280;44459;43.522;24.470;2022-12-07T04:16:54;100287.13;;;5.41;100.00
57572;BME280;44459;43.522;24.470;2022-12-07T04:19:24;100288.88;;;5.42;100.00
57572;BME280;44459;43.522;24.470;2022-12-07T04:21:50;100276.69;;;5.43;100.00
57572;BME280;44459;43.522;24.470;2022-12-07T04:24:16;100269.78;;;5.46;100.00
57572;BME280;44459;43.522;24.470;2022-12-07T04:26:42;100281.16;;;5.47;100.00
57572;BME280;44459;43.522;24.470;2022-12-07T04:29:09;100270.69;;;5.47;100.00
57572;BME280;44459;43.522;24.470;2022-12-07T04:31:36;100276.91;;;5.52;100.00
57572;BME280;44459;43.522;24.470;2022-12-07T04:34:02;100275.19;;;5.52;100.00
57572;BME280;44459;43.522;24.470;2022-12-07T04:36:27;100289.22;;;5.54;100.00
57572;BME280;44459;43.522;24.470;2022-12-07T04:38:54;100298.75;;;5.52;100.00
57572;BME280;44459;43.522;24.470;2022-12-07T04:41:21;100307.34;;;5.47;100.00
57572;BME280;44459;43.522;24.470;2022-12-07T04:43:57;100298.44;;;5.42;100.00
57572;BME280;44459;43.522;24.470;2022-12-07T04:46:24;100295.69;;;5.36;100.00
57572;BME280;44459;43.522;24.470;2022-12-07T04:48:51;100295.72;;;5.37;100.00
57572;BME280;44459;43.522;24.470;2022-12-07T04:51:20;100293.94;;;5.36;100.00
57572;BME280;44459;43.522;24.470;2022-12-07T04:53:46;100288.66;;;5.35;100.00
57572;BME280;44459;43.522;24.470;2022-12-07T04:56:13;100288.78;;;5.38;100.00
57572;BME280;44459;43.522;24.470;2022-12-07T04:58:38;100259.16;;;5.40;100.00
57572;BME280;44459;43.522;24.470;2022-12-07T05:01:04;100265.31;;;5.42;100.00
57572;BME280;44459;43.522;24.470;2022-12-07T05:03:29;100261.03;;;5.44;100.00
57572;BME280;44459;43.522;24.470;2022-12-07T05:05:55;100268.88;;;5.44;100.00
57572;BME280;44459;43.522;24.470;2022-12-07T05:08:20;100270.72;;;5.48;100.00
57572;BME280;44459;43.522;24.470;2022-12-07T05:10:45;100277.78;;;5.51;100.00
57572;BME280;44459;43.522;24.470;2022-12-07T05:13:11;100267.41;;;5.55;100.00
57572;BME280;44459;43.522;24.470;2022-12-07T05:15:36;100269.16;;;5.55;100.00
57572;BME280;44459;43.522;24.470;2022-12-07T05:18:02;100277.88;;;5.55;100.00
57572;BME280;44459;43.522;24.470;2022-12-07T05:20:28;100286.69;;;5.59;100.00
57572;BME280;44459;43.522;24.470;2022-12-07T05:22:53;100290.28;;;5.61;100.00
57572;BME280;44459;43.522;24.470;2022-12-07T05:25:19;100291.09;;;5.58;100.00
57572;BME280;44459;43.522;24.470;2022-12-07T05:27:44;100286.63;;;5.56;100.00
57572;BME280;44459;43.522;24.470;2022-12-07T05:30:10;100285.03;;;5.61;100.00
57572;BME280;44459;43.522;24.470;2022-12-07T05:32:36;100277.94;;;5.57;100.00
57572;BME280;44459;43.522;24.470;2022-12-07T05:35:01;100281.53;;;5.61;100.00
57572;BME280;44459;43.522;24.470;2022-12-07T05:37:27;100283.31;;;5.63;100.00
57572;BME280;44459;43.522;24.470;2022-12-07T05:39:52;100253.56;;;5.59;100.00
57572;BME280;44459;43.522;24.470;2022-12-07T05:42:17;100276.28;;;5.61;100.00
57572;BME280;44459;43.522;24.470;2022-12-07T05:44:45;100279.88;;;5.64;100.00
57572;BME280;44459;43.522;24.470;2022-12-07T05:47:12;100278.16;;;5.66;100.00
57572;BME280;44459;43.522;24.470;2022-12-07T05:49:38;100280.75;;;5.65;100.00
57572;BME280;44459;43.522;24.470;2022-12-07T05:52:05;100277.25;;;5.64;100.00
57572;BME280;44459;43.522;24.470;2022-12-07T05:54:31;100272.00;;;5.64;100.00
57572;BME280;44459;43.522;24.470;2022-12-07T05:56:56;100266.78;;;5.64;100.00
57572;BME280;44459;43.522;24.470;2022-12-07T05:59:22;100271.19;;;5.65;100.00
57572;BME280;44459;43.522;24.470;2022-12-07T06:02:04;100270.13;;;5.58;100.00
57572;BME280;44459;43.522;24.470;2022-12-07T06:04:32;100276.16;;;5.56;100.00
57572;BME280;44459;43.522;24.470;2022-12-07T06:06:58;100279.72;;;5.58;100.00
57572;BME280;44459;43.522;24.470;2022-12-07T06:09:25;100270.09;;;5.57;100.00
57572;BME280;44459;43.522;24.470;2022-12-07T06:11:51;100276.28;;;5.61;100.00
57572;BME280;44459;43.522;24.470;2022-12-07T06:14:35;100285.88;;;5.60;100.00
57572;BME280;44459;43.522;24.470;2022-12-07T06:17:00;100278.00;;;5.60;100.00
57572;BME280;44459;43.522;24.470;2022-12-07T06:19:26;100283.31;;;5.63;100.00
57572;BME280;44459;43.522;24.470;2022-12-07T06:21:52;100287.69;;;5.63;100.00
57572;BME280;44459;43.522;24.470;2022-12-07T06:24:17;100273.72;;;5.62;100.00
57572;BME280;44459;43.522;24.470;2022-12-07T06:26:44;100280.78;;;5.66;100.00
57572;BME280;44459;43.522;24.470;2022-12-07T06:29:11;100275.66;;;5.69;100.00
57572;BME280;44459;43.522;24.470;2022-12-07T06:31:37;100280.97;;;5.72;100.00
57572;BME280;44459;43.522;24.470;2022-12-07T06:34:08;100287.81;;;5.67;100.00
57572;BME280;44459;43.522;24.470;2022-12-07T06:36:34;100283.25;;;5.60;100.00
57572;BME280;44459;43.522;24.470;2022-12-07T06:39:00;100286.84;;;5.64;100.00
57572;BME280;44459;43.522;24.470;2022-12-07T06:41:25;100290.34;;;5.64;100.00
57572;BME280;44459;43.522;24.470;2022-12-07T06:43:50;100287.72;;;5.64;100.00
57572;BME280;44459;43.522;24.470;2022-12-07T06:46:16;100302.59;;;5.65;100.00
57572;BME280;44459;43.522;24.470;2022-12-07T06:48:42;100292.13;;;5.65;100.00
57572;BME280;44459;43.522;24.470;2022-12-07T06:51:08;100299.91;;;5.62;100.00
57572;BME280;44459;43.522;24.470;2022-12-07T06:53:34;100299.94;;;5.64;100.00
57572;BME280;44459;43.522;24.470;2022-12-07T06:56:00;100300.06;;;5.68;100.00
57572;BME280;44459;43.522;24.470;2022-12-07T06:58:25;100297.28;;;5.62;100.00
57572;BME280;44459;43.522;24.470;2022-12-07T07:00:51;100302.41;;;5.59;100.00
57572;BME280;44459;43.522;24.470;2022-12-07T07:03:16;100287.66;;;5.61;100.00
57572;BME280;44459;43.522;24.470;2022-12-07T07:05:42;100274.41;;;5.55;100.00
57572;BME280;44459;43.522;24.470;2022-12-07T07:08:08;100276.00;;;5.50;100.00
57572;BME280;44459;43.522;24.470;2022-12-07T07:10:34;100278.69;;;5.51;100.00
57572;BME280;44459;43.522;24.470;2022-12-07T07:13:00;100272.63;;;5.54;100.00
57572;BME280;44459;43.522;24.470;2022-12-07T07:15:25;100282.16;;;5.52;100.00
57572;BME280;44459;43.522;24.470;2022-12-07T07:17:51;100285.88;;;5.60;100.00
57572;BME280;44459;43.522;24.470;2022-12-07T07:20:16;100285.94;;;5.62;100.00
57572;BME280;44459;43.522;24.470;2022-12-07T07:22:42;100293.66;;;5.57;100.00
57572;BME280;44459;43.522;24.470;2022-12-07T07:25:08;100288.50;;;5.60;100.00
57572;BME280;44459;43.522;24.470;2022-12-07T07:27:33;100290.44;;;5.67;100.00
57572;BME280;44459;43.522;24.470;2022-12-07T07:29:58;100294.00;;;5.69;100.00
57572;BME280;44459;43.522;24.470;2022-12-07T07:32:24;100281.97;;;5.77;100.00
57572;BME280;44459;43.522;24.470;2022-12-07T07:34:49;100290.78;;;5.81;100.00
57572;BME280;44459;43.522;24.470;2022-12-07T07:37:15;100290.00;;;5.85;100.00
57572;BME280;44459;43.522;24.470;2022-12-07T07:39:40;100288.63;;;5.97;100.00
57572;BME280;44459;43.522;24.470;2022-12-07T07:42:06;100287.78;;;5.98;100.00
57572;BME280;44459;43.522;24.470;2022-12-07T07:44:33;100280.13;;;6.07;100.00
57572;BME280;44459;43.522;24.470;2022-12-07T07:46:58;100285.34;;;6.06;100.00
57572;BME280;44459;43.522;24.470;2022-12-07T07:49:24;100287.22;;;6.10;100.00
57572;BME280;44459;43.522;24.470;2022-12-07T07:51:50;100287.41;;;6.19;100.00
57572;BME280;44459;43.522;24.470;2022-12-07T07:54:15;100282.31;;;6.25;100.00
57572;BME280;44459;43.522;24.470;2022-12-07T07:56:41;100278.97;;;6.31;100.00
57572;BME280;44459;43.522;24.470;2022-12-07T07:59:06;100276.50;;;6.37;100.00
57572;BME280;44459;43.522;24.470;2022-12-07T08:01:32;100284.31;;;6.35;100.00
57572;BME280;44459;43.522;24.470;2022-12-07T08:03:57;100275.22;;;6.20;100.00
57572;BME280;44459;43.522;24.470;2022-12-07T08:06:22;100271.75;;;6.21;100.00
57572;BME280;44459;43.522;24.470;2022-12-07T08:08:48;100269.06;;;6.19;100.00
57572;BME280;44459;43.522;24.470;2022-12-07T08:11:13;100273.44;;;6.19;100.00
57572;BME280;44459;43.522;24.470;2022-12-07T08:13:39;100282.50;;;6.31;100.00
57572;BME280;44459;43.522;24.470;2022-12-07T08:16:06;100288.06;;;6.46;100.00
57572;BME280;44459;43.522;24.470;2022-12-07T08:18:36;100277.50;;;6.43;100.00
57572;BME280;44459;43.522;24.470;2022-12-07T08:21:02;100287.34;;;6.52;100.00
57572;BME280;44459;43.522;24.470;2022-12-07T08:23:29;100280.50;;;6.60;100.00
57572;BME280;44459;43.522;24.470;2022-12-07T08:25:55;100295.69;;;6.73;100.00
57572;BME280;44459;43.522;24.470;2022-12-07T08:28:20;100278.38;;;6.81;100.00
57572;BME280;44459;43.522;24.470;2022-12-07T08:30:46;100282.84;;;6.85;100.00
57572;BME280;44459;43.522;24.470;2022-12-07T08:33:11;100289.09;;;6.92;100.00
57572;BME280;44459;43.522;24.470;2022-12-07T08:35:38;100284.75;;;6.92;100.00
57572;BME280;44459;43.522;24.470;2022-12-07T08:38:03;100285.34;;;6.79;100.00
57572;BME280;44459;43.522;24.470;2022-12-07T08:40:29;100288.63;;;6.71;100.00
57572;BME280;44459;43.522;24.470;2022-12-07T08:42:55;100282.50;;;6.70;100.00
57572;BME280;44459;43.522;24.470;2022-12-07T08:45:21;100289.28;;;6.61;100.00
57572;BME280;44459;43.522;24.470;2022-12-07T08:48:07;100292.19;;;6.73;100.00
57572;BME280;44459;43.522;24.470;2022-12-07T08:50:36;100284.25;;;6.70;100.00
57572;BME280;44459;43.522;24.470;2022-12-07T08:53:02;100284.28;;;6.71;100.00
57572;BME280;44459;43.522;24.470;2022-12-07T08:55:29;100278.53;;;6.48;100.00
57572;BME280;44459;43.522;24.470;2022-12-07T08:57:57;100281.28;;;6.54;100.00
57572;BME280;44459;43.522;24.470;2022-12-07T09:00:23;100271.38;;;6.41;100.00
57572;BME280;44459;43.522;24.470;2022-12-07T09:02:49;100275.03;;;6.49;100.00
57572;BME280;44459;43.522;24.470;2022-12-07T09:05:14;100271.44;;;6.44;100.00
57572;BME280;44459;43.522;24.470;2022-12-07T09:07:41;100267.06;;;6.45;100.00
57572;BME280;44459;43.522;24.470;2022-12-07T09:10:07;100268.81;;;6.46;100.00
57572;BME280;44459;43.522;24.470;2022-12-07T09:12:33;100260.31;;;6.56;100.00
57572;BME280;44459;43.522;24.470;2022-12-07T09:14:58;100259.41;;;6.54;100.00
57572;BME280;44459;43.522;24.470;2022-12-07T09:17:26;100246.94;;;6.44;100.00
57572;BME280;44459;43.522;24.470;2022-12-07T09:19:51;100244.97;;;6.35;100.00
57572;BME280;44459;43.522;24.470;2022-12-07T09:22:17;100244.28;;;6.42;100.00
57572;BME280;44459;43.522;24.470;2022-12-07T09:24:42;100244.44;;;6.48;100.00
57572;BME280;44459;43.522;24.470;2022-12-07T09:27:09;100236.41;;;6.41;100.00
57572;BME280;44459;43.522;24.470;2022-12-07T09:29:35;100229.50;;;6.46;100.00
57572;BME280;44459;43.522;24.470;2022-12-07T09:32:00;100228.63;;;6.45;100.00
57572;BME280;44459;43.522;24.470;2022-12-07T09:34:25;100233.94;;;6.48;100.00
57572;BME280;44459;43.522;24.470;2022-12-07T09:36:51;100236.72;;;6.56;100.00
57572;BME280;44459;43.522;24.470;2022-12-07T09:39:17;100232.66;;;6.70;100.00
57572;BME280;44459;43.522;24.470;2022-12-07T09:41:44;100228.34;;;6.72;100.00
57572;BME280;44459;43.522;24.470;2022-12-07T09:44:22;100227.47;;;6.72;100.00
57572;BME280;44459;43.522;24.470;2022-12-07T09:46:48;100219.63;;;6.73;100.00
57572;BME280;44459;43.522;24.470;2022-12-07T09:49:28;100216.00;;;6.68;100.00
57572;BME280;44459;43.522;24.470;2022-12-07T09:54:47;100204.69;;;6.71;100.00
57572;BME280;44459;43.522;24.470;2022-12-07T09:57:13;100203.91;;;6.73;100.00
57572;BME280;44459;43.522;24.470;2022-12-07T09:59:39;100203.94;;;6.76;100.00
57572;BME280;44459;43.522;24.470;2022-12-07T10:04:52;100195.53;;;6.92;100.00
57572;BME280;44459;43.522;24.470;2022-12-07T10:07:17;100196.31;;;6.88;100.00
57572;BME280;44459;43.522;24.470;2022-12-07T10:09:44;100191.16;;;6.93;100.00
57572;BME280;44459;43.522;24.470;2022-12-07T10:12:11;100179.91;;;6.98;100.00
57572;BME280;44459;43.522;24.470;2022-12-07T10:14:40;100171.13;;;6.96;100.00
57572;BME280;44459;43.522;24.470;2022-12-07T10:17:30;100168.41;;;6.92;100.00
57572;BME280;44459;43.522;24.470;2022-12-07T10:20:21;100165.75;;;6.90;100.00
57572;BME280;44459;43.522;24.470;2022-12-07T10:23:04;100164.94;;;6.94;100.00
57572;BME280;44459;43.522;24.470;2022-12-07T10:25:35;100158.94;;;7.00;100.00
57572;BME280;44459;43.522;24.470;2022-12-07T10:30:55;100155.72;;;7.15;100.00
57572;BME280;44459;43.522;24.470;2022-12-07T10:35:53;100146.72;;;7.02;100.00
57572;BME280;44459;43.522;24.470;2022-12-07T10:38:19;100140.66;;;7.04;100.00
57572;BME280;44459;43.522;24.470;2022-12-07T10:40:44;100128.19;;;6.94;100.00
57572;BME280;44459;43.522;24.470;2022-12-07T11:02:54;100107.34;;;7.02;100.00
57572;BME280;44459;43.522;24.470;2022-12-07T11:05:30;100109.91;;;6.97;100.00
57572;BME280;44459;43.522;24.470;2022-12-07T11:08:05;100115.22;;;7.00;100.00
57572;BME280;44459;43.522;24.470;2022-12-07T11:13:26;100105.66;;;7.04;100.00
57572;BME280;44459;43.522;24.470;2022-12-07T11:18:48;100098.63;;;7.03;100.00
57572;BME280;44459;43.522;24.470;2022-12-07T11:21:51;100104.09;;;7.14;100.00
57572;BME280;44459;43.522;24.470;2022-12-07T11:27:05;100094.78;;;7.32;100.00
57572;BME280;44459;43.522;24.470;2022-12-07T11:37:36;100081.31;;;7.11;100.00
57572;BME280;44459;43.522;24.470;2022-12-07T11:40:20;100079.56;;;7.13;100.00
57572;BME280;44459;43.522;24.470;2022-12-07T11:43:05;100066.59;;;7.21;100.00
57572;BME280;44459;43.522;24.470;2022-12-07T11:45:37;100062.19;;;7.18;100.00
57572;BME280;44459;43.522;24.470;2022-12-07T11:48:14;100059.50;;;7.17;100.00
57572;BME280;44459;43.522;24.470;2022-12-07T11:50:53;100049.75;;;7.09;100.00
57572;BME280;44459;43.522;24.470;2022-12-07T11:53:54;100059.38;;;7.07;100.00
57572;BME280;44459;43.522;24.470;2022-12-07T11:56:25;100057.59;;;7.06;100.00
57572;BME280;44459;43.522;24.470;2022-12-07T11:59:02;100045.22;;;6.99;100.00
57572;BME280;44459;43.522;24.470;2022-12-07T12:06:35;100052.47;;;7.14;100.00
57572;BME280;44459;43.522;24.470;2022-12-07T12:20:31;100032.81;;;7.43;100.00
57572;BME280;44459;43.522;24.470;2022-12-07T12:22:59;100024.78;;;7.34;100.00
57572;BME280;44459;43.522;24.470;2022-12-07T12:25:28;100022.84;;;7.23;100.00
57572;BME280;44459;43.522;24.470;2022-12-07T12:27:58;100018.44;;;7.20;100.00
57572;BME280;44459;43.522;24.470;2022-12-07T12:30:37;100024.50;;;7.15;100.00
57572;BME280;44459;43.522;24.470;2022-12-07T12:33:06;100013.31;;;7.29;100.00
57572;BME280;44459;43.522;24.470;2022-12-07T12:35:36;100015.19;;;7.36;100.00
57572;BME280;44459;43.522;24.470;2022-12-07T12:38:31;100018.75;;;7.38;100.00
57572;BME280;44459;43.522;24.470;2022-12-07T12:40:59;100020.41;;;7.33;100.00
57572;BME280;44459;43.522;24.470;2022-12-07T12:43:51;100020.41;;;7.33;100.00
57572;BME280;44459;43.522;24.470;2022-12-07T12:51:53;100024.75;;;7.33;100.00
57572;BME280;44459;43.522;24.470;2022-12-07T12:59:28;100020.28;;;7.26;100.00
57572;BME280;44459;43.522;24.470;2022-12-07T13:04:53;100008.84;;;7.22;100.00
57572;BME280;44459;43.522;24.470;2022-12-07T13:23:29;100005.91;;;7.01;100.00
57572;BME280;44459;43.522;24.470;2022-12-07T13:28:22;100000.38;;;6.86;100.00
57572;BME280;44459;43.522;24.470;2022-12-07T13:31:09;99999.53;;;6.88;100.00
57572;BME280;44459;43.522;24.470;2022-12-07T13:33:37;99998.78;;;6.94;100.00
57572;BME280;44459;43.522;24.470;2022-12-07T13:36:02;99994.47;;;6.97;100.00
57572;BME280;44459;43.522;24.470;2022-12-07T13:38:31;99991.84;;;6.97;100.00
57572;BME280;44459;43.522;24.470;2022-12-07T13:41:05;99986.59;;;6.97;100.00
57572;BME280;44459;43.522;24.470;2022-12-07T13:43:53;99984.91;;;7.01;100.00
57572;BME280;44459;43.522;24.470;2022-12-07T13:46:25;99988.31;;;6.97;100.00
57572;BME280;44459;43.522;24.470;2022-12-07T13:48:52;99984.00;;;7.00;100.00
57572;BME280;44459;43.522;24.470;2022-12-07T13:53:53;99994.59;;;7.06;100.00
57572;BME280;44459;43.522;24.470;2022-12-07T13:56:22;99984.06;;;7.03;100.00
57572;BME280;44459;43.522;24.470;2022-12-07T13:58:47;99980.50;;;7.01;100.00
57572;BME280;44459;43.522;24.470;2022-12-07T14:01:13;99977.97;;;7.06;100.00
57572;BME280;44459;43.522;24.470;2022-12-07T14:03:39;99985.84;;;7.04;100.00
57572;BME280;44459;43.522;24.470;2022-12-07T14:08:33;99988.59;;;7.15;100.00
57572;BME280;44459;43.522;24.470;2022-12-07T14:10:59;99993.84;;;7.14;100.00
57572;BME280;44459;43.522;24.470;2022-12-07T14:13:34;99999.09;;;7.14;100.00
57572;BME280;44459;43.522;24.470;2022-12-07T14:16:23;99985.88;;;7.07;100.00
57572;BME280;44459;43.522;24.470;2022-12-07T14:18:47;99975.22;;;6.98;100.00
57572;BME280;44459;43.522;24.470;2022-12-07T14:23:39;99975.44;;;7.11;100.00
57572;BME280;44459;43.522;24.470;2022-12-07T14:26:14;99978.00;;;7.07;100.00
57572;BME280;44459;43.522;24.470;2022-12-07T14:28:40;99970.94;;;7.03;100.00
57572;BME280;44459;43.522;24.470;2022-12-07T14:31:14;99972.53;;;6.95;100.00
57572;BME280;44459;43.522;24.470;2022-12-07T14:33:41;99977.84;;;6.97;100.00
57572;BME280;44459;43.522;24.470;2022-12-07T14:36:14;99968.09;;;6.91;100.00
57572;BME280;44459;43.522;24.470;2022-12-07T14:38:39;99982.06;;;6.89;100.00
57572;BME280;44459;43.522;24.470;2022-12-07T14:41:16;99975.00;;;6.85;100.00
57572;BME280;44459;43.522;24.470;2022-12-07T14:44:10;99978.47;;;6.82;100.00
57572;BME280;44459;43.522;24.470;2022-12-07T14:46:36;99985.44;;;6.80;100.00
57572;BME280;44459;43.522;24.470;2022-12-07T14:49:01;99985.34;;;6.77;100.00
57572;BME280;44459;43.522;24.470;2022-12-07T14:51:27;99993.25;;;6.79;100.00
57572;BME280;44459;43.522;24.470;2022-12-07T14:53:52;99988.81;;;6.75;100.00
57572;BME280;44459;43.522;24.470;2022-12-07T14:56:18;99987.91;;;6.73;100.00
57572;BME280;44459;43.522;24.470;2022-12-07T14:58:43;99994.09;;;6.78;100.00
57572;BME280;44459;43.522;24.470;2022-12-07T15:01:09;99995.94;;;6.80;100.00
57572;BME280;44459;43.522;24.470;2022-12-07T15:03:34;99999.41;;;6.79;100.00
57572;BME280;44459;43.522;24.470;2022-12-07T15:06:00;99992.47;;;6.84;100.00